sensor_id;sensor_type;location;lat;lon;timestamp;temperature;humidity
23839;DHT22;12100;44.384;20.272;2022-09-28T00:03:38;12.40;99.90
23839;DHT22;12100;44.384;20.272;2022-09-28T00:06:07;12.30;99.90
23839;DHT22;12100;44.384;20.272;2022-09-28T00:08:34;12.30;99.90
23839;DHT22;12100;44.384;20.272;2022-09-28T00:11:01;12.30;99.90
23839;DHT22;12100;44.384;20.272;2022-09-28T00:13:27;12.20;99.90
23839;DHT22;12100;44.384;20.272;2022-09-28T00:16:02;12.20;99.90
23839;DHT22;12100;44.384;20.272;2022-09-28T00:18:29;12.20;99.90
23839;DHT22;12100;44.384;20.272;2022-09-28T00:21:04;12.20;99.90
23839;DHT22;12100;44.384;20.272;2022-09-28T00:23:31;12.10;99.90
23839;DHT22;12100;44.384;20.272;2022-09-28T00:26:01;12.10;99.90
23839;DHT22;12100;44.384;20.272;2022-09-28T00:28:27;12.00;99.90
23839;DHT22;12100;44.384;20.272;2022-09-28T00:30:54;12.00;99.90
23839;DHT22;12100;44.384;20.272;2022-09-28T00:33:21;11.90;99.90
23839;DHT22;12100;44.384;20.272;2022-09-28T00:35:57;12.00;99.90
23839;DHT22;12100;44.384;20.272;2022-09-28T00:38:26;11.90;99.90
23839;DHT22;12100;44.384;20.272;2022-09-28T00:40:52;12.00;99.90
23839;DHT22;12100;44.384;20.272;2022-09-28T00:43:19;12.00;99.90
23839;DHT22;12100;44.384;20.272;2022-09-28T00:45:50;12.00;99.90
23839;DHT22;12100;44.384;20.272;2022-09-28T00:48:17;12.00;99.90
23839;DHT22;12100;44.384;20.272;2022-09-28T00:50:43;12.00;99.90
23839;DHT22;12100;44.384;20.272;2022-09-28T00:53:31;12.10;99.90
23839;DHT22;12100;44.384;20.272;2022-09-28T00:56:02;12.10;99.90
23839;DHT22;12100;44.384;20.272;2022-09-28T00:58:36;12.10;99.90
23839;DHT22;12100;44.384;20.272;2022-09-28T01:01:03;12.10;99.90
23839;DHT22;12100;44.384;20.272;2022-09-28T01:03:29;12.10;99.90
23839;DHT22;12100;44.384;20.272;2022-09-28T01:05:58;12.10;99.90
23839;DHT22;12100;44.384;20.272;2022-09-28T01:08:27;12.10;99.90
23839;DHT22;12100;44.384;20.272;2022-09-28T01:10:54;12.10;99.90
23839;DHT22;12100;44.384;20.272;2022-09-28T01:13:22;12.10;99.90
23839;DHT22;12100;44.384;20.272;2022-09-28T01:15:55;12.10;99.90
23839;DHT22;12100;44.384;20.272;2022-09-28T01:21:17;12.10;99.90
23839;DHT22;12100;44.384;20.272;2022-09-28T01:23:53;12.10;99.90
23839;DHT22;12100;44.384;20.272;2022-09-28T01:26:38;12.00;99.90
23839;DHT22;12100;44.384;20.272;2022-09-28T01:33:12;12.00;99.90
23839;DHT22;12100;44.384;20.272;2022-09-28T01:35:14;12.00;99.90
23839;DHT22;12100;44.384;20.272;2022-09-28T01:37:56;11.90;99.90
23839;DHT22;12100;44.384;20.272;2022-09-28T01:40:25;11.80;99.90
23839;DHT22;12100;44.384;20.272;2022-09-28T01:43:31;11.80;99.90
23839;DHT22;12100;44.384;20.272;2022-09-28T01:46:13;11.80;99.90
23839;DHT22;12100;44.384;20.272;2022-09-28T01:48:51;11.80;99.90
23839;DHT22;12100;44.384;20.272;2022-09-28T01:51:28;11.90;99.90
23839;DHT22;12100;44.384;20.272;2022-09-28T01:54:00;12.00;99.90
23839;DHT22;12100;44.384;20.272;2022-09-28T01:56:50;12.00;99.90
23839;DHT22;12100;44.384;20.272;2022-09-28T01:59:26;12.10;99.90
23839;DHT22;12100;44.384;20.272;2022-09-28T02:02:13;12.10;99.90
23839;DHT22;12100;44.384;20.272;2022-09-28T02:05:04;12.10;99.90
23839;DHT22;12100;44.384;20.272;2022-09-28T02:07:37;12.20;99.90
23839;DHT22;12100;44.384;20.272;2022-09-28T02:10:09;12.20;99.90
23839;DHT22;12100;44.384;20.272;2022-09-28T02:12:43;12.20;99.90
23839;DHT22;12100;44.384;20.272;2022-09-28T02:15:23;12.10;99.90
23839;DHT22;12100;44.384;20.272;2022-09-28T02:17:52;12.10;99.90
23839;DHT22;12100;44.384;20.272;2022-09-28T02:20:20;12.10;99.90
23839;DHT22;12100;44.384;20.272;2022-09-28T02:22:50;12.10;99.90
23839;DHT22;12100;44.384;20.272;2022-09-28T02:28:05;12.10;99.90
23839;DHT22;12100;44.384;20.272;2022-09-28T02:30:32;12.10;99.90
23839;DHT22;12100;44.384;20.272;2022-09-28T02:33:20;12.10;99.90
23839;DHT22;12100;44.384;20.272;2022-09-28T02:35:47;12.00;99.90
23839;DHT22;12100;44.384;20.272;2022-09-28T02:38:14;12.10;99.90
23839;DHT22;12100;44.384;20.272;2022-09-28T02:40:43;12.10;99.90
23839;DHT22;12100;44.384;20.272;2022-09-28T02:51:48;12.30;99.90
23839;DHT22;12100;44.384;20.272;2022-09-28T02:59:52;12.40;99.90
23839;DHT22;12100;44.384;20.272;2022-09-28T03:02:47;12.30;99.90
23839;DHT22;12100;44.384;20.272;2022-09-28T03:08:18;12.10;99.90
23839;DHT22;12100;44.384;20.272;2022-09-28T03:10:49;12.00;99.90
23839;DHT22;12100;44.384;20.272;2022-09-28T03:13:17;12.10;99.90
23839;DHT22;12100;44.384;20.272;2022-09-28T03:15:43;12.00;99.90
23839;DHT22;12100;44.384;20.272;2022-09-28T03:18:09;12.00;99.90
23839;DHT22;12100;44.384;20.272;2022-09-28T03:20:35;12.00;99.90
23839;DHT22;12100;44.384;20.272;2022-09-28T03:23:02;12.00;99.90
23839;DHT22;12100;44.384;20.272;2022-09-28T03:25:27;12.00;99.90
23839;DHT22;12100;44.384;20.272;2022-09-28T03:27:54;12.00;99.90
23839;DHT22;12100;44.384;20.272;2022-09-28T03:30:19;12.00;99.90
23839;DHT22;12100;44.384;20.272;2022-09-28T03:32:46;11.90;99.90
23839;DHT22;12100;44.384;20.272;2022-09-28T03:35:12;11.80;99.90
23839;DHT22;12100;44.384;20.272;2022-09-28T03:37:38;11.90;99.90
23839;DHT22;12100;44.384;20.272;2022-09-28T03:40:04;12.00;99.90
23839;DHT22;12100;44.384;20.272;2022-09-28T03:42:30;12.00;99.90
23839;DHT22;12100;44.384;20.272;2022-09-28T03:44:56;12.10;99.90
23839;DHT22;12100;44.384;20.272;2022-09-28T03:47:22;12.10;99.90
23839;DHT22;12100;44.384;20.272;2022-09-28T03:49:48;12.10;99.90
23839;DHT22;12100;44.384;20.272;2022-09-28T03:52:14;12.00;99.90
23839;DHT22;12100;44.384;20.272;2022-09-28T03:54:40;11.90;99.90
23839;DHT22;12100;44.384;20.272;2022-09-28T03:57:06;11.80;99.90
23839;DHT22;12100;44.384;20.272;2022-09-28T03:59:32;11.90;99.90
23839;DHT22;12100;44.384;20.272;2022-09-28T04:02:02;12.00;99.90
23839;DHT22;12100;44.384;20.272;2022-09-28T04:04:28;12.00;99.90
23839;DHT22;12100;44.384;20.272;2022-09-28T04:06:54;12.10;99.90
23839;DHT22;12100;44.384;20.272;2022-09-28T04:09:19;12.20;99.90
23839;DHT22;12100;44.384;20.272;2022-09-28T04:11:46;12.30;99.90
23839;DHT22;12100;44.384;20.272;2022-09-28T04:14:12;12.40;99.90
23839;DHT22;12100;44.384;20.272;2022-09-28T04:16:37;12.40;99.90
23839;DHT22;12100;44.384;20.272;2022-09-28T04:19:03;12.40;99.90
23839;DHT22;12100;44.384;20.272;2022-09-28T04:21:29;12.50;99.90
23839;DHT22;12100;44.384;20.272;2022-09-28T04:23:55;12.50;99.90
23839;DHT22;12100;44.384;20.272;2022-09-28T04:26:25;12.50;99.90
23839;DHT22;12100;44.384;20.272;2022-09-28T04:28:51;12.50;99.90
23839;DHT22;12100;44.384;20.272;2022-09-28T04:31:38;12.50;99.90
23839;DHT22;12100;44.384;20.272;2022-09-28T04:34:04;12.50;99.90
23839;DHT22;12100;44.384;20.272;2022-09-28T04:36:30;12.60;99.90
23839;DHT22;12100;44.384;20.272;2022-09-28T04:38:56;12.60;99.90
23839;DHT22;12100;44.384;20.272;2022-09-28T04:41:21;12.60;99.90
23839;DHT22;12100;44.384;20.272;2022-09-28T04:43:48;12.60;99.90
23839;DHT22;12100;44.384;20.272;2022-09-28T04:46:14;12.50;99.90
23839;DHT22;12100;44.384;20.272;2022-09-28T04:48:40;12.50;99.90
23839;DHT22;12100;44.384;20.272;2022-09-28T04:51:06;12.40;99.90
23839;DHT22;12100;44.384;20.272;2022-09-28T04:53:32;12.50;99.90
23839;DHT22;12100;44.384;20.272;2022-09-28T04:56:04;12.50;99.90
23839;DHT22;12100;44.384;20.272;2022-09-28T04:58:31;12.60;99.90
23839;DHT22;12100;44.384;20.272;2022-09-28T05:00:59;12.70;99.90
23839;DHT22;12100;44.384;20.272;2022-09-28T05:03:25;12.70;99.90
23839;DHT22;12100;44.384;20.272;2022-09-28T05:05:52;12.80;99.90
23839;DHT22;12100;44.384;20.272;2022-09-28T05:08:18;12.90;99.90
23839;DHT22;12100;44.384;20.272;2022-09-28T05:10:44;13.00;99.90
23839;DHT22;12100;44.384;20.272;2022-09-28T05:13:11;13.00;99.90
23839;DHT22;12100;44.384;20.272;2022-09-28T05:15:39;13.00;99.90
23839;DHT22;12100;44.384;20.272;2022-09-28T05:18:05;14.50;99.90
23839;DHT22;12100;44.384;20.272;2022-09-28T05:20:31;15.10;99.90
23839;DHT22;12100;44.384;20.272;2022-09-28T05:22:57;14.80;99.90
23839;DHT22;12100;44.384;20.272;2022-09-28T05:25:23;14.70;99.90
23839;DHT22;12100;44.384;20.272;2022-09-28T05:27:55;14.80;99.90
23839;DHT22;12100;44.384;20.272;2022-09-28T05:30:22;14.80;99.90
23839;DHT22;12100;44.384;20.272;2022-09-28T05:32:48;14.90;99.90
23839;DHT22;12100;44.384;20.272;2022-09-28T05:35:18;15.00;99.90
23839;DHT22;12100;44.384;20.272;2022-09-28T05:37:44;16.60;99.90
23839;DHT22;12100;44.384;20.272;2022-09-28T05:40:11;19.60;99.90
23839;DHT22;12100;44.384;20.272;2022-09-28T05:42:36;21.80;92.30
23839;DHT22;12100;44.384;20.272;2022-09-28T05:45:03;22.90;85.80
23839;DHT22;12100;44.384;20.272;2022-09-28T05:47:29;24.50;79.30
23839;DHT22;12100;44.384;20.272;2022-09-28T05:49:55;24.10;72.80
23839;DHT22;12100;44.384;20.272;2022-09-28T05:52:21;23.30;74.80
23839;DHT22;12100;44.384;20.272;2022-09-28T05:54:47;23.10;78.10
23839;DHT22;12100;44.384;20.272;2022-09-28T05:57:13;21.10;84.10
23839;DHT22;12100;44.384;20.272;2022-09-28T05:59:39;20.20;88.60
23839;DHT22;12100;44.384;20.272;2022-09-28T06:02:06;19.60;90.10
23839;DHT22;12100;44.384;20.272;2022-09-28T06:04:32;18.80;92.20
23839;DHT22;12100;44.384;20.272;2022-09-28T06:06:58;17.60;94.70
23839;DHT22;12100;44.384;20.272;2022-09-28T06:09:24;17.10;98.80
23839;DHT22;12100;44.384;20.272;2022-09-28T06:11:50;16.80;99.90
23839;DHT22;12100;44.384;20.272;2022-09-28T06:14:17;16.40;99.90
23839;DHT22;12100;44.384;20.272;2022-09-28T06:16:43;16.20;99.90
23839;DHT22;12100;44.384;20.272;2022-09-28T06:19:10;16.00;99.90
23839;DHT22;12100;44.384;20.272;2022-09-28T06:21:36;15.80;99.90
23839;DHT22;12100;44.384;20.272;2022-09-28T06:24:02;15.70;99.90
23839;DHT22;12100;44.384;20.272;2022-09-28T06:26:29;15.60;99.90
23839;DHT22;12100;44.384;20.272;2022-09-28T06:28:54;15.40;99.90
23839;DHT22;12100;44.384;20.272;2022-09-28T06:31:20;15.40;99.90
23839;DHT22;12100;44.384;20.272;2022-09-28T06:33:51;15.40;99.90
23839;DHT22;12100;44.384;20.272;2022-09-28T06:36:18;15.40;99.90
23839;DHT22;12100;44.384;20.272;2022-09-28T06:38:45;15.40;99.90
23839;DHT22;12100;44.384;20.272;2022-09-28T06:41:11;15.40;99.90
23839;DHT22;12100;44.384;20.272;2022-09-28T06:43:37;15.10;99.90
23839;DHT22;12100;44.384;20.272;2022-09-28T06:46:08;15.00;99.90
23839;DHT22;12100;44.384;20.272;2022-09-28T06:48:34;14.90;99.90
23839;DHT22;12100;44.384;20.272;2022-09-28T06:51:00;14.90;99.90
23839;DHT22;12100;44.384;20.272;2022-09-28T06:53:27;14.90;99.90
23839;DHT22;12100;44.384;20.272;2022-09-28T06:55:53;15.00;99.90
23839;DHT22;12100;44.384;20.272;2022-09-28T06:58:20;15.10;99.90
23839;DHT22;12100;44.384;20.272;2022-09-28T07:00:49;15.30;99.90
23839;DHT22;12100;44.384;20.272;2022-09-28T07:03:17;15.30;99.90
23839;DHT22;12100;44.384;20.272;2022-09-28T07:05:54;15.20;99.90
23839;DHT22;12100;44.384;20.272;2022-09-28T07:08:24;15.20;99.90
23839;DHT22;12100;44.384;20.272;2022-09-28T07:10:52;15.20;99.90
23839;DHT22;12100;44.384;20.272;2022-09-28T07:13:23;15.30;99.90
23839;DHT22;12100;44.384;20.272;2022-09-28T07:15:55;15.40;99.90
23839;DHT22;12100;44.384;20.272;2022-09-28T07:18:22;15.40;99.90
23839;DHT22;12100;44.384;20.272;2022-09-28T07:20:48;15.40;99.90
23839;DHT22;12100;44.384;20.272;2022-09-28T07:23:14;15.30;99.90
23839;DHT22;12100;44.384;20.272;2022-09-28T07:25:40;15.40;99.90
23839;DHT22;12100;44.384;20.272;2022-09-28T07:28:10;15.50;99.90
23839;DHT22;12100;44.384;20.272;2022-09-28T07:30:37;15.50;99.90
23839;DHT22;12100;44.384;20.272;2022-09-28T07:33:04;15.50;99.90
23839;DHT22;12100;44.384;20.272;2022-09-28T07:35:31;15.60;99.90
23839;DHT22;12100;44.384;20.272;2022-09-28T07:38:04;15.50;99.90
23839;DHT22;12100;44.384;20.272;2022-09-28T07:40:31;15.70;99.90
23839;DHT22;12100;44.384;20.272;2022-09-28T07:43:17;15.90;99.90
23839;DHT22;12100;44.384;20.272;2022-09-28T07:45:49;15.90;99.90
23839;DHT22;12100;44.384;20.272;2022-09-28T07:48:17;16.00;99.90
23839;DHT22;12100;44.384;20.272;2022-09-28T07:50:54;16.20;99.90
23839;DHT22;12100;44.384;20.272;2022-09-28T07:53:23;16.30;99.90
23839;DHT22;12100;44.384;20.272;2022-09-28T07:56:00;16.40;99.90
23839;DHT22;12100;44.384;20.272;2022-09-28T07:58:36;17.50;99.90
23839;DHT22;12100;44.384;20.272;2022-09-28T08:01:07;18.50;99.90
23839;DHT22;12100;44.384;20.272;2022-09-28T08:03:35;18.90;99.90
23839;DHT22;12100;44.384;20.272;2022-09-28T08:06:04;19.40;99.00
23839;DHT22;12100;44.384;20.272;2022-09-28T08:08:35;20.00;99.10
23839;DHT22;12100;44.384;20.272;2022-09-28T08:11:01;20.40;92.50
23839;DHT22;12100;44.384;20.272;2022-09-28T08:13:27;20.10;92.10
23839;DHT22;12100;44.384;20.272;2022-09-28T08:15:53;20.10;93.10
23839;DHT22;12100;44.384;20.272;2022-09-28T08:18:20;20.70;93.50
23839;DHT22;12100;44.384;20.272;2022-09-28T08:20:46;20.80;93.00
23839;DHT22;12100;44.384;20.272;2022-09-28T08:46:41;22.00;85.40
23839;DHT22;12100;44.384;20.272;2022-09-28T08:49:24;21.90;85.60
23839;DHT22;12100;44.384;20.272;2022-09-28T08:51:56;22.30;90.40
23839;DHT22;12100;44.384;20.272;2022-09-28T08:59:50;23.30;87.00
23839;DHT22;12100;44.384;20.272;2022-09-28T09:02:31;24.30;84.20
23839;DHT22;12100;44.384;20.272;2022-09-28T09:05:00;24.80;87.50
23839;DHT22;12100;44.384;20.272;2022-09-28T09:10:42;24.10;85.90
23839;DHT22;12100;44.384;20.272;2022-09-28T09:19:48;23.90;84.60
23839;DHT22;12100;44.384;20.272;2022-09-28T09:30:23;23.70;73.40
23839;DHT22;12100;44.384;20.272;2022-09-28T09:35:52;23.40;78.50
23839;DHT22;12100;44.384;20.272;2022-09-28T09:46:16;23.00;75.20
23839;DHT22;12100;44.384;20.272;2022-09-28T09:48:54;23.00;78.70
23839;DHT22;12100;44.384;20.272;2022-09-28T09:51:58;23.60;78.20
23839;DHT22;12100;44.384;20.272;2022-09-28T09:57:20;23.90;77.30
23839;DHT22;12100;44.384;20.272;2022-09-28T09:59:48;23.70;76.90
23839;DHT22;12100;44.384;20.272;2022-09-28T10:02:31;23.50;78.80
23839;DHT22;12100;44.384;20.272;2022-09-28T10:10:33;23.00;83.20
23839;DHT22;12100;44.384;20.272;2022-09-28T10:13:00;22.70;84.90
23839;DHT22;12100;44.384;20.272;2022-09-28T10:15:31;22.30;85.40
23839;DHT22;12100;44.384;20.272;2022-09-28T10:18:04;21.90;87.80
23839;DHT22;12100;44.384;20.272;2022-09-28T10:20:36;21.60;89.90
23839;DHT22;12100;44.384;20.272;2022-09-28T10:23:05;21.30;90.60
23839;DHT22;12100;44.384;20.272;2022-09-28T10:25:35;21.00;91.30
23839;DHT22;12100;44.384;20.272;2022-09-28T10:28:04;20.90;91.60
23839;DHT22;12100;44.384;20.272;2022-09-28T10:30:36;20.90;92.20
23839;DHT22;12100;44.384;20.272;2022-09-28T10:33:32;20.90;92.70
23839;DHT22;12100;44.384;20.272;2022-09-28T10:36:03;20.80;93.20
23839;DHT22;12100;44.384;20.272;2022-09-28T10:38:32;20.70;93.20
23839;DHT22;12100;44.384;20.272;2022-09-28T10:40:59;20.70;93.80
23839;DHT22;12100;44.384;20.272;2022-09-28T10:43:37;20.60;94.20
23839;DHT22;12100;44.384;20.272;2022-09-28T10:46:09;20.40;95.90
23839;DHT22;12100;44.384;20.272;2022-09-28T10:51:10;20.50;95.90
23839;DHT22;12100;44.384;20.272;2022-09-28T10:53:36;20.80;96.30
23839;DHT22;12100;44.384;20.272;2022-09-28T10:56:17;21.20;95.80
23839;DHT22;12100;44.384;20.272;2022-09-28T10:58:43;21.60;95.60
23839;DHT22;12100;44.384;20.272;2022-09-28T11:01:21;21.90;94.60
23839;DHT22;12100;44.384;20.272;2022-09-28T11:03:56;21.90;91.60
23839;DHT22;12100;44.384;20.272;2022-09-28T11:06:37;21.90;92.40
23839;DHT22;12100;44.384;20.272;2022-09-28T11:09:08;22.50;92.30
23839;DHT22;12100;44.384;20.272;2022-09-28T11:11:43;22.80;91.70
23839;DHT22;12100;44.384;20.272;2022-09-28T11:14:32;22.80;89.70
23839;DHT22;12100;44.384;20.272;2022-09-28T11:17:37;22.80;88.50
23839;DHT22;12100;44.384;20.272;2022-09-28T11:20:37;23.20;87.50
23839;DHT22;12100;44.384;20.272;2022-09-28T11:23:36;22.90;90.10
23839;DHT22;12100;44.384;20.272;2022-09-28T11:26:05;23.50;88.20
23839;DHT22;12100;44.384;20.272;2022-09-28T11:28:35;23.40;82.40
23839;DHT22;12100;44.384;20.272;2022-09-28T11:31:02;23.70;82.40
23839;DHT22;12100;44.384;20.272;2022-09-28T11:33:41;24.20;83.30
23839;DHT22;12100;44.384;20.272;2022-09-28T11:44:15;33.10;55.80
23839;DHT22;12100;44.384;20.272;2022-09-28T11:47:12;34.00;50.40
23839;DHT22;12100;44.384;20.272;2022-09-28T11:58:34;37.10;40.40
23839;DHT22;12100;44.384;20.272;2022-09-28T12:03:41;35.10;45.70
23839;DHT22;12100;44.384;20.272;2022-09-28T12:06:15;36.00;43.90
23839;DHT22;12100;44.384;20.272;2022-09-28T12:08:48;36.60;43.50
23839;DHT22;12100;44.384;20.272;2022-09-28T12:11:26;38.00;42.70
23839;DHT22;12100;44.384;20.272;2022-09-28T12:13:57;36.40;43.40
23839;DHT22;12100;44.384;20.272;2022-09-28T12:16:31;36.10;42.20
23839;DHT22;12100;44.384;20.272;2022-09-28T12:21:47;37.40;42.80
23839;DHT22;12100;44.384;20.272;2022-09-28T12:24:40;38.10;40.50
23839;DHT22;12100;44.384;20.272;2022-09-28T12:29:47;35.80;40.40
23839;DHT22;12100;44.384;20.272;2022-09-28T12:55:46;25.90;68.10
23839;DHT22;12100;44.384;20.272;2022-09-28T13:01:12;25.30;71.50
23839;DHT22;12100;44.384;20.272;2022-09-28T13:06:39;25.10;69.20
23839;DHT22;12100;44.384;20.272;2022-09-28T13:09:15;24.90;72.60
23839;DHT22;12100;44.384;20.272;2022-09-28T13:23:14;24.40;76.70
23839;DHT22;12100;44.384;20.272;2022-09-28T13:28:19;24.30;75.80
23839;DHT22;12100;44.384;20.272;2022-09-28T13:30:46;24.20;74.90
23839;DHT22;12100;44.384;20.272;2022-09-28T13:33:23;24.20;76.20
23839;DHT22;12100;44.384;20.272;2022-09-28T13:35:50;24.00;76.70
23839;DHT22;12100;44.384;20.272;2022-09-28T13:48:45;23.70;78.10
23839;DHT22;12100;44.384;20.272;2022-09-28T13:54:02;23.40;82.70
23839;DHT22;12100;44.384;20.272;2022-09-28T14:02:08;23.60;83.20
23839;DHT22;12100;44.384;20.272;2022-09-28T14:04:56;23.60;83.60
23839;DHT22;12100;44.384;20.272;2022-09-28T14:10:51;23.30;85.70
23839;DHT22;12100;44.384;20.272;2022-09-28T14:27:57;22.90;85.60
23839;DHT22;12100;44.384;20.272;2022-09-28T14:33:29;22.80;86.80
23839;DHT22;12100;44.384;20.272;2022-09-28T14:36:04;22.80;87.00
23839;DHT22;12100;44.384;20.272;2022-09-28T14:38:35;22.90;86.90
23839;DHT22;12100;44.384;20.272;2022-09-28T14:41:39;22.80;85.50
23839;DHT22;12100;44.384;20.272;2022-09-28T14:44:08;22.70;87.10
23839;DHT22;12100;44.384;20.272;2022-09-28T14:46:42;22.70;88.60
23839;DHT22;12100;44.384;20.272;2022-09-28T14:51:58;22.70;88.80
23839;DHT22;12100;44.384;20.272;2022-09-28T14:54:52;22.50;89.30
23839;DHT22;12100;44.384;20.272;2022-09-28T14:57:21;22.50;87.30
23839;DHT22;12100;44.384;20.272;2022-09-28T14:59:48;22.40;89.30
23839;DHT22;12100;44.384;20.272;2022-09-28T15:04:52;22.30;91.50
23839;DHT22;12100;44.384;20.272;2022-09-28T15:07:26;22.20;91.70
23839;DHT22;12100;44.384;20.272;2022-09-28T15:09:58;21.90;90.10
23839;DHT22;12100;44.384;20.272;2022-09-28T15:12:29;21.70;88.30
23839;DHT22;12100;44.384;20.272;2022-09-28T15:22:55;21.40;87.40
23839;DHT22;12100;44.384;20.272;2022-09-28T15:25:25;21.30;87.00
23839;DHT22;12100;44.384;20.272;2022-09-28T15:27:54;21.20;87.00
23839;DHT22;12100;44.384;20.272;2022-09-28T15:30:29;21.10;87.00
23839;DHT22;12100;44.384;20.272;2022-09-28T15:32:57;21.20;87.10
23839;DHT22;12100;44.384;20.272;2022-09-28T15:35:58;21.10;87.40
23839;DHT22;12100;44.384;20.272;2022-09-28T15:38:26;21.00;87.50
23839;DHT22;12100;44.384;20.272;2022-09-28T15:40:53;20.90;87.40
23839;DHT22;12100;44.384;20.272;2022-09-28T15:43:26;20.90;87.80
23839;DHT22;12100;44.384;20.272;2022-09-28T15:46:04;20.80;88.50
23839;DHT22;12100;44.384;20.272;2022-09-28T15:51:10;20.60;89.30
23839;DHT22;12100;44.384;20.272;2022-09-28T15:54:06;20.50;90.40
23839;DHT22;12100;44.384;20.272;2022-09-28T15:57:26;20.50;91.00
23839;DHT22;12100;44.384;20.272;2022-09-28T15:59:54;20.30;91.80
23839;DHT22;12100;44.384;20.272;2022-09-28T16:02:21;20.20;91.60
23839;DHT22;12100;44.384;20.272;2022-09-28T16:04:51;20.10;90.80
23839;DHT22;12100;44.384;20.272;2022-09-28T16:07:28;20.00;92.40
23839;DHT22;12100;44.384;20.272;2022-09-28T16:17:33;19.70;91.80
23839;DHT22;12100;44.384;20.272;2022-09-28T16:20:30;19.50;93.00
23839;DHT22;12100;44.384;20.272;2022-09-28T16:23:40;19.50;92.70
23839;DHT22;12100;44.384;20.272;2022-09-28T16:26:05;19.40;93.80
23839;DHT22;12100;44.384;20.272;2022-09-28T16:31:15;19.00;95.70
23839;DHT22;12100;44.384;20.272;2022-09-28T16:33:56;18.90;97.20
23839;DHT22;12100;44.384;20.272;2022-09-28T16:36:25;18.70;98.80
23839;DHT22;12100;44.384;20.272;2022-09-28T16:38:52;18.60;99.90
23839;DHT22;12100;44.384;20.272;2022-09-28T16:41:21;18.50;99.90
23839;DHT22;12100;44.384;20.272;2022-09-28T16:43:52;18.30;99.90
23839;DHT22;12100;44.384;20.272;2022-09-28T16:46:21;18.20;99.90
23839;DHT22;12100;44.384;20.272;2022-09-28T16:48:53;18.10;99.90
23839;DHT22;12100;44.384;20.272;2022-09-28T16:51:21;18.00;99.90
23839;DHT22;12100;44.384;20.272;2022-09-28T16:53:48;17.90;99.90
23839;DHT22;12100;44.384;20.272;2022-09-28T16:56:33;17.80;99.90
23839;DHT22;12100;44.384;20.272;2022-09-28T16:58:59;17.70;99.90
23839;DHT22;12100;44.384;20.272;2022-09-28T17:01:27;17.60;99.90
23839;DHT22;12100;44.384;20.272;2022-09-28T17:03:54;17.60;99.90
23839;DHT22;12100;44.384;20.272;2022-09-28T17:06:21;17.50;99.90
23839;DHT22;12100;44.384;20.272;2022-09-28T17:08:51;17.40;99.90
23839;DHT22;12100;44.384;20.272;2022-09-28T17:11:19;17.40;99.90
23839;DHT22;12100;44.384;20.272;2022-09-28T17:13:45;17.30;99.90
23839;DHT22;12100;44.384;20.272;2022-09-28T17:16:12;17.30;99.90
23839;DHT22;12100;44.384;20.272;2022-09-28T17:18:39;17.20;99.90
23839;DHT22;12100;44.384;20.272;2022-09-28T17:21:19;17.20;99.90
23839;DHT22;12100;44.384;20.272;2022-09-28T17:23:47;17.10;99.90
23839;DHT22;12100;44.384;20.272;2022-09-28T17:26:39;17.10;99.90
23839;DHT22;12100;44.384;20.272;2022-09-28T17:29:11;17.00;99.90
23839;DHT22;12100;44.384;20.272;2022-09-28T17:31:39;17.00;99.90
23839;DHT22;12100;44.384;20.272;2022-09-28T17:34:06;16.90;99.90
23839;DHT22;12100;44.384;20.272;2022-09-28T17:36:32;16.90;99.90
23839;DHT22;12100;44.384;20.272;2022-09-28T17:38:57;16.70;99.90
23839;DHT22;12100;44.384;20.272;2022-09-28T17:41:24;16.70;99.90
23839;DHT22;12100;44.384;20.272;2022-09-28T17:43:50;16.70;99.90
23839;DHT22;12100;44.384;20.272;2022-09-28T17:46:37;16.60;99.90
23839;DHT22;12100;44.384;20.272;2022-09-28T17:49:08;16.60;99.90
23839;DHT22;12100;44.384;20.272;2022-09-28T17:51:35;16.60;99.90
23839;DHT22;12100;44.384;20.272;2022-09-28T17:54:06;16.60;99.90
23839;DHT22;12100;44.384;20.272;2022-09-28T17:56:33;16.50;99.90
23839;DHT22;12100;44.384;20.272;2022-09-28T17:59:04;16.40;99.90
23839;DHT22;12100;44.384;20.272;2022-09-28T18:01:36;16.40;99.90
23839;DHT22;12100;44.384;20.272;2022-09-28T18:04:04;16.40;99.90
23839;DHT22;12100;44.384;20.272;2022-09-28T18:06:32;16.30;99.90
23839;DHT22;12100;44.384;20.272;2022-09-28T18:08:59;16.30;99.90
23839;DHT22;12100;44.384;20.272;2022-09-28T18:11:25;16.30;99.90
23839;DHT22;12100;44.384;20.272;2022-09-28T18:13:51;16.20;99.90
23839;DHT22;12100;44.384;20.272;2022-09-28T18:16:17;16.20;99.90
23839;DHT22;12100;44.384;20.272;2022-09-28T18:18:44;16.20;99.90
23839;DHT22;12100;44.384;20.272;2022-09-28T18:21:10;16.10;99.90
23839;DHT22;12100;44.384;20.272;2022-09-28T18:23:38;16.10;99.90
23839;DHT22;12100;44.384;20.272;2022-09-28T18:26:13;16.10;99.90
23839;DHT22;12100;44.384;20.272;2022-09-28T18:28:39;16.10;99.90
23839;DHT22;12100;44.384;20.272;2022-09-28T18:31:09;16.00;99.90
23839;DHT22;12100;44.384;20.272;2022-09-28T18:33:36;15.90;99.90
23839;DHT22;12100;44.384;20.272;2022-09-28T18:36:03;15.90;99.90
23839;DHT22;12100;44.384;20.272;2022-09-28T18:38:29;15.90;99.90
23839;DHT22;12100;44.384;20.272;2022-09-28T18:40:54;15.90;99.90
23839;DHT22;12100;44.384;20.272;2022-09-28T18:43:21;15.90;99.90
23839;DHT22;12100;44.384;20.272;2022-09-28T18:45:47;15.80;99.90
23839;DHT22;12100;44.384;20.272;2022-09-28T18:48:13;15.80;99.90
23839;DHT22;12100;44.384;20.272;2022-09-28T18:50:42;15.80;99.90
23839;DHT22;12100;44.384;20.272;2022-09-28T18:53:08;15.70;99.90
23839;DHT22;12100;44.384;20.272;2022-09-28T18:55:41;15.70;99.90
23839;DHT22;12100;44.384;20.272;2022-09-28T18:58:09;15.60;99.90
23839;DHT22;12100;44.384;20.272;2022-09-28T19:00:38;15.70;99.90
23839;DHT22;12100;44.384;20.272;2022-09-28T19:03:05;15.60;99.90
23839;DHT22;12100;44.384;20.272;2022-09-28T19:05:30;15.60;99.90
23839;DHT22;12100;44.384;20.272;2022-09-28T19:07:58;15.60;99.90
23839;DHT22;12100;44.384;20.272;2022-09-28T19:10:24;15.50;99.90
23839;DHT22;12100;44.384;20.272;2022-09-28T19:12:50;15.50;99.90
23839;DHT22;12100;44.384;20.272;2022-09-28T19:15:17;15.40;99.90
23839;DHT22;12100;44.384;20.272;2022-09-28T19:17:44;15.40;99.90
23839;DHT22;12100;44.384;20.272;2022-09-28T19:20:12;15.30;99.90
23839;DHT22;12100;44.384;20.272;2022-09-28T19:22:38;15.30;99.90
23839;DHT22;12100;44.384;20.272;2022-09-28T19:25:04;15.20;99.90
23839;DHT22;12100;44.384;20.272;2022-09-28T19:27:30;15.20;99.90
23839;DHT22;12100;44.384;20.272;2022-09-28T19:29:55;15.10;99.90